KEWN/EWN METAR and TAF weather

Enter ICAO airport designator
Station Type Date Time Source
KEWN METAR 2019/10/18 10:54 UTC NOAA

KEWN 181054Z 29003KT 10SM CLR 07/04 A2999 RMK AO2 SLP154 T00670044


Station Type Date Time Source
KEWN Decoded METAR 2019/10/18 10:54 UTC NOAA

New Bern, Craven County Regional Airport, NC, United States (KEWN) 35-04-03N 077-02-50W 3M
Oct 18, 2019 - 06:54 AM EDT / 2019.10.18 1054 UTC
Wind: from the WNW (290 degrees) at 3 MPH (3 KT):0
Visibility: 10 mile(s):0
Sky conditions: clear
Temperature: 44.1 F (6.7 C)
Dew Point: 39.9 F (4.4 C)
Relative Humidity: 85%
Pressure (altimeter): 29.99 in. Hg (1015 hPa)
ob: KEWN 181054Z 29003KT 10SM CLR 07/04 A2999 RMK AO2 SLP154 T00670044
cycle: 11

Station Type Date Time Source
KEWN TAF 2019/10/18 06:21 UTC NOAA

TAF KEWN 180520Z 1806/1906 33005KT P6SM SKC

Example: see airport list